createdAt,value
2023-05-10T00:00:17.403Z,20.08
2023-05-10T00:02:44.820Z,20.14
2023-05-10T00:05:11.777Z,19.98
2023-05-10T00:07:38.300Z,19.81
2023-05-10T00:10:09.723Z,19.92
2023-05-10T00:12:39.588Z,20.05
2023-05-10T00:15:07.066Z,19.93
2023-05-10T00:17:34.806Z,20.10
2023-05-10T00:20:01.633Z,19.93
2023-05-10T00:22:36.858Z,20.16
2023-05-10T00:25:05.633Z,19.94
2023-05-10T00:27:38.837Z,19.96
2023-05-10T00:30:05.809Z,19.97
2023-05-10T00:32:35.937Z,19.95
2023-05-10T00:35:12.457Z,19.90
2023-05-10T00:37:39.241Z,19.79
2023-05-10T00:40:09.050Z,19.76
2023-05-10T00:42:37.265Z,19.79
2023-05-10T00:45:04.074Z,19.74
2023-05-10T00:47:36.967Z,19.70
2023-05-10T00:50:10.793Z,19.81
2023-05-10T00:52:53.871Z,19.60
2023-05-10T00:55:28.241Z,19.67
2023-05-10T00:57:55.711Z,19.92
2023-05-10T01:00:27.069Z,19.75
2023-05-10T01:02:54.917Z,19.79
2023-05-10T01:05:32.096Z,19.88
2023-05-10T01:08:03.876Z,19.72
2023-05-10T01:10:31.069Z,19.71
2023-05-10T01:12:58.089Z,19.83
2023-05-10T01:15:25.616Z,19.74
2023-05-10T01:17:55.658Z,19.96
2023-05-10T01:20:29.360Z,19.92
2023-05-10T01:23:29.776Z,19.70
2023-05-10T01:26:11.523Z,19.77
2023-05-10T01:28:56.357Z,19.74
2023-05-10T01:31:43.722Z,19.36
2023-05-10T01:34:28.113Z,19.93
2023-05-10T01:37:13.620Z,20.03
2023-05-10T01:39:57.940Z,19.59
2023-05-10T01:42:34.983Z,19.98
2023-05-10T01:45:12.561Z,19.93
2023-05-10T01:47:47.705Z,20.24
2023-05-10T01:50:33.403Z,19.91
2023-05-10T01:53:12.360Z,19.72
2023-05-10T01:56:00.572Z,19.39
2023-05-10T01:58:45.280Z,19.81
2023-05-10T02:01:29.012Z,19.80
2023-05-10T02:04:02.684Z,19.89
2023-05-10T02:06:31.121Z,19.87
2023-05-10T02:08:58.906Z,20.04
2023-05-10T02:11:29.594Z,19.85
2023-05-10T02:13:56.678Z,19.69
2023-05-10T02:16:24.932Z,19.80
2023-05-10T02:18:53.411Z,19.62
2023-05-10T02:21:26.232Z,19.15
2023-05-10T02:23:57.098Z,19.89
2023-05-10T02:26:26.026Z,19.72
2023-05-10T02:28:53.973Z,19.79
2023-05-10T02:31:21.069Z,19.81
2023-05-10T02:33:53.834Z,19.67
2023-05-10T02:36:22.254Z,19.67
2023-05-10T02:38:50.023Z,19.85
2023-05-10T02:41:20.749Z,19.45
2023-05-10T02:43:48.400Z,19.76
2023-05-10T02:46:15.059Z,19.69
2023-05-10T02:48:47.721Z,19.70
2023-05-10T02:51:18.688Z,19.64
2023-05-10T02:53:47.103Z,19.66
2023-05-10T02:56:24.734Z,19.49
2023-05-10T02:58:51.377Z,19.51
2023-05-10T03:01:17.927Z,19.77
2023-05-10T03:03:45.564Z,19.59
2023-05-10T03:06:12.160Z,19.55
2023-05-10T03:08:42.451Z,19.53
2023-05-10T03:11:16.729Z,19.38
2023-05-10T03:13:49.825Z,19.25
2023-05-10T03:16:17.844Z,19.32
2023-05-10T03:19:16.816Z,19.27
2023-05-10T03:21:48.054Z,19.25
2023-05-10T03:24:21.017Z,19.41
2023-05-10T03:26:51.686Z,19.06
2023-05-10T03:29:20.477Z,18.92
2023-05-10T03:31:47.213Z,19.15
2023-05-10T03:34:13.847Z,19.24
2023-05-10T03:36:40.825Z,19.10
2023-05-10T03:39:07.442Z,19.08
2023-05-10T03:41:39.331Z,19.08
2023-05-10T03:44:15.867Z,19.05
2023-05-10T03:46:43.102Z,19.05
2023-05-10T03:49:09.763Z,18.96
2023-05-10T03:51:36.906Z,19.10
2023-05-10T03:54:03.855Z,18.88
2023-05-10T03:56:33.169Z,18.97
2023-05-10T03:59:00.415Z,19.00
2023-05-10T04:01:27.047Z,19.16
2023-05-10T04:03:53.919Z,19.10
2023-05-10T04:06:20.584Z,19.32
2023-05-10T04:08:48.446Z,19.18
2023-05-10T04:11:16.505Z,19.13
2023-05-10T04:13:44.130Z,19.23
2023-05-10T04:16:10.726Z,19.25
2023-05-10T04:18:37.491Z,19.23
2023-05-10T04:21:04.372Z,19.08
2023-05-10T04:23:41.848Z,19.17
2023-05-10T04:26:08.523Z,19.24
2023-05-10T04:28:40.466Z,19.00
2023-05-10T04:31:11.399Z,18.83
2023-05-10T04:33:39.963Z,18.71
2023-05-10T04:36:07.229Z,18.71
2023-05-10T04:38:33.689Z,18.93
2023-05-10T04:41:07.439Z,19.03
2023-05-10T04:43:34.078Z,19.06
2023-05-10T04:46:01.071Z,18.88
2023-05-10T04:48:28.362Z,18.86
2023-05-10T04:50:54.918Z,18.69
2023-05-10T04:53:21.566Z,18.73
2023-05-10T04:55:49.097Z,18.91
2023-05-10T04:58:15.691Z,18.75
2023-05-10T05:00:42.780Z,18.67
2023-05-10T05:03:09.507Z,18.77
2023-05-10T05:05:36.146Z,19.09
2023-05-10T05:08:02.794Z,18.84
2023-05-10T05:10:29.395Z,18.52
2023-05-10T05:12:55.949Z,18.17
2023-05-10T05:15:24.871Z,17.64
2023-05-10T05:17:51.510Z,18.03
2023-05-10T05:20:19.518Z,17.99
2023-05-10T05:22:46.558Z,18.04
2023-05-10T05:25:13.746Z,18.19
2023-05-10T05:27:40.338Z,18.21
2023-05-10T05:30:07.561Z,18.16
2023-05-10T05:32:37.286Z,18.07
2023-05-10T05:35:03.960Z,18.21
2023-05-10T05:37:30.749Z,18.35
2023-05-10T05:39:58.592Z,18.33
2023-05-10T05:42:28.636Z,18.44
2023-05-10T05:44:56.124Z,18.45
2023-05-10T05:47:23.004Z,18.48
2023-05-10T05:49:49.700Z,18.58
2023-05-10T05:52:18.340Z,18.46
2023-05-10T05:54:44.981Z,18.28
2023-05-10T05:57:11.570Z,18.39
2023-05-10T05:59:43.458Z,18.56
2023-05-10T06:02:10.354Z,18.27
2023-05-10T06:04:37.765Z,18.37
2023-05-10T06:07:04.802Z,18.53
2023-05-10T06:09:31.744Z,18.46
2023-05-10T06:11:58.265Z,18.43
2023-05-10T06:14:24.766Z,18.30
2023-05-10T06:16:51.481Z,18.44
2023-05-10T06:19:18.443Z,18.51
2023-05-10T06:21:47.328Z,18.70
2023-05-10T06:24:13.865Z,18.42
2023-05-10T06:26:40.662Z,18.55
2023-05-10T06:29:07.348Z,18.48
2023-05-10T06:31:34.315Z,18.55
2023-05-10T06:34:01.185Z,18.61
2023-05-10T06:36:28.458Z,18.58
2023-05-10T06:38:55.526Z,18.52
2023-05-10T06:41:25.662Z,18.84
2023-05-10T06:43:52.278Z,18.60
2023-05-10T06:46:18.967Z,18.70
2023-05-10T06:48:45.877Z,18.76
2023-05-10T06:51:15.162Z,18.47
2023-05-10T06:53:41.793Z,18.79
2023-05-10T06:56:08.535Z,18.94
2023-05-10T06:58:43.402Z,18.69
2023-05-10T07:01:10.164Z,18.73
2023-05-10T07:03:39.639Z,18.78
2023-05-10T07:06:29.330Z,18.91
2023-05-10T07:09:00.339Z,19.06
2023-05-10T07:11:26.916Z,19.23
2023-05-10T07:13:53.443Z,19.15
2023-05-10T07:16:20.037Z,19.12
2023-05-10T07:18:46.530Z,18.91
2023-05-10T07:21:13.092Z,19.10
2023-05-10T07:23:39.911Z,19.10
2023-05-10T07:26:06.553Z,19.10
2023-05-10T07:28:33.139Z,18.85
2023-05-10T07:30:59.783Z,18.78
2023-05-10T07:33:26.372Z,18.79
2023-05-10T07:35:52.994Z,18.84
2023-05-10T07:38:22.512Z,18.97
2023-05-10T07:40:49.107Z,18.93
2023-05-10T07:43:16.091Z,18.92
2023-05-10T07:45:43.628Z,18.19
2023-05-10T07:48:10.230Z,18.89
2023-05-10T07:50:36.861Z,19.16
2023-05-10T07:53:03.500Z,19.22
2023-05-10T07:55:31.819Z,19.22
2023-05-10T07:57:58.849Z,19.29
2023-05-10T08:00:25.476Z,19.09
2023-05-10T08:02:52.204Z,19.05
2023-05-10T08:05:20.548Z,18.93
2023-05-10T08:07:51.230Z,18.61
2023-05-10T08:10:18.101Z,18.86
2023-05-10T08:12:44.722Z,18.80
2023-05-10T08:15:11.405Z,18.56
2023-05-10T08:17:39.682Z,18.55
2023-05-10T08:20:06.529Z,18.44
2023-05-10T08:22:35.681Z,17.66
2023-05-10T08:25:02.359Z,18.44
2023-05-10T08:27:29.077Z,18.33
2023-05-10T08:29:55.531Z,18.12
2023-05-10T08:32:23.456Z,18.18
2023-05-10T08:34:50.009Z,18.14
2023-05-10T08:37:16.666Z,17.99
2023-05-10T08:39:43.405Z,17.87
2023-05-10T08:42:11.443Z,17.86
2023-05-10T08:44:38.280Z,17.94
2023-05-10T08:47:11.456Z,18.11
2023-05-10T08:49:38.596Z,18.25
2023-05-10T08:52:06.640Z,18.20
2023-05-10T08:54:34.316Z,18.33
2023-05-10T08:57:01.306Z,18.32
2023-05-10T08:59:28.746Z,17.99
2023-05-10T09:01:57.057Z,17.76
2023-05-10T09:04:24.114Z,17.82
2023-05-10T09:06:50.904Z,18.11
2023-05-10T09:09:21.179Z,17.97
2023-05-10T09:11:48.154Z,17.82
2023-05-10T09:14:16.463Z,18.05
2023-05-10T09:16:43.359Z,18.11
2023-05-10T09:19:10.538Z,18.31
2023-05-10T09:21:40.329Z,18.26
2023-05-10T09:24:10.034Z,18.49
2023-05-10T09:26:37.801Z,18.50
2023-05-10T09:29:04.451Z,18.48
2023-05-10T09:31:52.332Z,18.67
2023-05-10T09:34:20.071Z,18.46
2023-05-10T09:36:53.830Z,18.21
2023-05-10T09:39:22.591Z,18.03
2023-05-10T09:41:49.519Z,18.11
2023-05-10T09:44:20.576Z,18.23
2023-05-10T09:46:53.750Z,18.42
2023-05-10T09:49:21.918Z,18.26
2023-05-10T09:51:48.909Z,18.18
2023-05-10T09:54:19.858Z,18.25
2023-05-10T09:56:46.405Z,18.26
2023-05-10T09:59:13.572Z,18.32
2023-05-10T10:01:40.504Z,18.53
2023-05-10T10:04:11.462Z,18.57
2023-05-10T10:06:39.364Z,18.57
2023-05-10T10:09:07.266Z,18.57
2023-05-10T10:11:35.845Z,18.54
2023-05-10T10:14:02.448Z,18.33
2023-05-10T10:16:32.582Z,18.42
2023-05-10T10:19:00.469Z,18.04
2023-05-10T10:21:27.936Z,17.99
2023-05-10T10:23:55.911Z,17.79
2023-05-10T10:26:23.073Z,17.96
2023-05-10T10:28:58.046Z,18.12
2023-05-10T10:31:33.663Z,17.99
2023-05-10T10:34:00.398Z,17.79
2023-05-10T10:36:28.354Z,17.55
2023-05-10T10:39:01.879Z,17.43
2023-05-10T10:41:33.669Z,17.54
2023-05-10T10:44:36.015Z,17.40
2023-05-10T10:47:03.685Z,17.04
2023-05-10T10:49:37.375Z,17.07
2023-05-10T10:52:31.093Z,17.41
2023-05-10T10:55:02.634Z,17.33
2023-05-10T10:57:31.265Z,17.22
2023-05-10T11:00:16.739Z,17.04
2023-05-10T11:02:47.413Z,16.97
2023-05-10T11:05:26.031Z,16.67
2023-05-10T11:07:56.632Z,16.50
2023-05-10T11:10:26.886Z,16.69
2023-05-10T11:13:06.606Z,16.61
2023-05-10T11:15:37.188Z,16.43
2023-05-10T11:18:20.684Z,16.35
2023-05-10T11:21:00.854Z,16.10
2023-05-10T11:23:31.544Z,15.99
2023-05-10T11:25:58.240Z,15.89
2023-05-10T11:28:24.988Z,15.77
2023-05-10T11:30:52.418Z,15.72
2023-05-10T11:33:20.467Z,15.60
2023-05-10T11:35:52.065Z,15.48
2023-05-10T11:38:18.717Z,15.46
2023-05-10T11:40:46.662Z,15.38
2023-05-10T11:43:13.313Z,15.27
2023-05-10T11:45:41.322Z,15.13
2023-05-10T11:48:08.477Z,15.12
2023-05-10T11:50:35.489Z,15.16
2023-05-10T11:53:02.081Z,15.08
2023-05-10T11:55:28.762Z,15.09
2023-05-10T11:58:06.484Z,15.13
2023-05-10T12:00:39.051Z,15.20
2023-05-10T12:03:06.209Z,15.20
2023-05-10T12:05:34.462Z,14.86
2023-05-10T12:08:14.352Z,15.22
2023-05-10T12:10:41.026Z,15.25
2023-05-10T12:13:12.104Z,15.27
2023-05-10T12:15:42.741Z,15.31
2023-05-10T12:18:16.273Z,15.28
2023-05-10T12:20:46.573Z,15.17
2023-05-10T12:23:29.357Z,15.04
2023-05-10T12:26:02.824Z,15.00
2023-05-10T12:28:31.324Z,15.02
2023-05-10T12:30:59.051Z,14.99
2023-05-10T12:33:25.919Z,14.92
2023-05-10T12:35:54.157Z,14.81
2023-05-10T12:39:01.529Z,14.86
2023-05-10T12:41:31.466Z,14.50
2023-05-10T12:43:57.997Z,14.97
2023-05-10T12:46:26.598Z,14.92
2023-05-10T12:49:08.063Z,14.96
2023-05-10T12:51:35.966Z,14.86
2023-05-10T12:54:06.742Z,14.82
2023-05-10T12:56:33.393Z,14.84
2023-05-10T12:59:00.156Z,14.75
2023-05-10T13:01:30.143Z,14.65
2023-05-10T13:04:11.495Z,14.37
2023-05-10T13:06:39.900Z,14.64
2023-05-10T13:09:09.393Z,14.64
2023-05-10T13:11:36.572Z,14.64
2023-05-10T13:14:05.238Z,14.72
2023-05-10T13:16:32.490Z,14.69
2023-05-10T13:19:04.161Z,14.67
2023-05-10T13:21:34.500Z,14.51
2023-05-10T13:24:03.592Z,14.52
2023-05-10T13:26:31.253Z,14.56
2023-05-10T13:28:58.722Z,14.59
2023-05-10T13:31:25.732Z,14.62
2023-05-10T13:34:02.640Z,14.57
2023-05-10T13:36:33.984Z,14.61
2023-05-10T13:39:04.590Z,14.64
2023-05-10T13:41:31.584Z,14.68
2023-05-10T13:43:59.551Z,14.68
2023-05-10T13:46:26.208Z,14.68
2023-05-10T13:48:52.960Z,14.73
2023-05-10T13:51:20.293Z,14.70
2023-05-10T13:53:49.002Z,14.37
2023-05-10T13:56:15.598Z,14.68
2023-05-10T13:58:43.912Z,14.65
2023-05-10T14:01:12.761Z,14.60
2023-05-10T14:03:39.498Z,14.55
2023-05-10T14:06:08.634Z,14.57
2023-05-10T14:08:36.296Z,14.59
2023-05-10T14:11:03.720Z,14.36
2023-05-10T14:13:30.939Z,14.64
2023-05-10T14:15:57.860Z,14.77
2023-05-10T14:18:25.717Z,14.87
2023-05-10T14:20:53.425Z,14.87
2023-05-10T14:23:25.555Z,14.86
2023-05-10T14:25:52.534Z,14.82
2023-05-10T14:28:19.565Z,14.89
2023-05-10T14:30:46.350Z,14.81
2023-05-10T14:33:14.736Z,14.82
2023-05-10T14:35:41.690Z,14.92
2023-05-10T14:38:08.378Z,14.95
2023-05-10T14:40:36.408Z,14.83
2023-05-10T14:43:02.959Z,14.80
2023-05-10T14:45:29.706Z,14.81
2023-05-10T14:47:56.422Z,14.77
2023-05-10T14:50:35.781Z,14.77
2023-05-10T14:53:03.574Z,14.81
2023-05-10T14:55:30.387Z,14.83
2023-05-10T14:57:57.312Z,14.76
2023-05-10T15:00:23.829Z,14.68
2023-05-10T15:02:50.899Z,14.63
2023-05-10T15:05:18.445Z,14.67
2023-05-10T15:07:45.810Z,14.66
2023-05-10T15:10:12.847Z,14.70
2023-05-10T15:12:40.684Z,14.77
2023-05-10T15:15:07.826Z,14.78
2023-05-10T15:17:35.047Z,14.77
2023-05-10T15:20:07.733Z,14.72
2023-05-10T15:22:37.907Z,14.79
2023-05-10T15:25:05.979Z,14.86
2023-05-10T15:27:32.673Z,14.87
2023-05-10T15:30:00.633Z,14.86
2023-05-10T15:32:27.192Z,14.98
2023-05-10T15:34:53.766Z,14.95
2023-05-10T15:37:20.816Z,15.00
2023-05-10T15:39:47.364Z,15.02
2023-05-10T15:42:14.361Z,15.04
2023-05-10T15:44:43.693Z,15.02
2023-05-10T15:47:10.344Z,15.05
2023-05-10T15:49:37.104Z,14.95
2023-05-10T15:52:03.848Z,14.98
2023-05-10T15:54:32.536Z,14.97
2023-05-10T15:57:02.378Z,15.03
2023-05-10T15:59:29.797Z,15.02
2023-05-10T16:01:57.079Z,14.99
2023-05-10T16:04:24.170Z,14.96
2023-05-10T16:06:51.072Z,14.99
2023-05-10T16:09:17.817Z,15.05
2023-05-10T16:11:44.498Z,15.06
2023-05-10T16:14:13.197Z,15.26
2023-05-10T16:16:40.161Z,15.07
2023-05-10T16:19:06.787Z,14.87
2023-05-10T16:21:33.906Z,14.84
2023-05-10T16:24:00.752Z,14.80
2023-05-10T16:26:27.342Z,14.69
2023-05-10T16:28:53.940Z,14.70
2023-05-10T16:31:20.755Z,14.74
2023-05-10T16:33:47.769Z,14.71
2023-05-10T16:36:16.973Z,14.59
2023-05-10T16:38:45.045Z,14.57
2023-05-10T16:41:11.742Z,14.54
2023-05-10T16:43:39.240Z,14.57
2023-05-10T16:46:12.223Z,14.57
2023-05-10T16:48:39.016Z,14.44
2023-05-10T16:51:09.260Z,14.39
2023-05-10T16:53:36.774Z,14.45
2023-05-10T16:56:03.385Z,14.46
2023-05-10T16:58:30.295Z,14.52
2023-05-10T17:03:41.406Z,14.46
2023-05-10T17:06:08.796Z,14.36
2023-05-10T17:08:35.690Z,14.35
2023-05-10T17:11:03.257Z,14.30
2023-05-10T17:13:30.387Z,14.32
2023-05-10T17:15:57.057Z,14.35
2023-05-10T17:18:23.919Z,14.42
2023-05-10T17:20:55.788Z,14.47
2023-05-10T17:23:22.445Z,14.47
2023-05-10T17:25:49.318Z,14.34
2023-05-10T17:28:17.118Z,14.41
2023-05-10T17:30:46.871Z,14.38
2023-05-10T17:33:22.380Z,13.94
2023-05-10T17:35:49.907Z,14.27
2023-05-10T17:38:18.415Z,14.27
2023-05-10T17:40:45.048Z,14.29
2023-05-10T17:43:11.651Z,14.32
2023-05-10T17:45:38.499Z,14.37
2023-05-10T17:48:07.487Z,13.98
2023-05-10T17:50:41.628Z,14.41
2023-05-10T17:53:16.772Z,14.01
2023-05-10T17:55:49.709Z,14.24
2023-05-10T17:58:16.516Z,14.29
2023-05-10T18:00:50.082Z,14.26
2023-05-10T18:03:18.314Z,14.17
2023-05-10T18:05:46.383Z,14.19
2023-05-10T18:08:13.744Z,14.19
2023-05-10T18:10:41.469Z,14.20
2023-05-10T18:13:09.892Z,14.20
2023-05-10T18:15:43.320Z,14.15
2023-05-10T18:18:18.347Z,14.30
2023-05-10T18:20:46.751Z,14.26
2023-05-10T18:23:16.537Z,14.24
2023-05-10T18:25:55.456Z,13.94
2023-05-10T18:28:25.598Z,14.23
2023-05-10T18:30:53.671Z,13.96
2023-05-10T18:33:30.330Z,14.27
2023-05-10T18:36:02.827Z,14.25
2023-05-10T18:38:33.957Z,14.35
2023-05-10T18:41:01.370Z,14.30
2023-05-10T18:43:28.035Z,14.26
2023-05-10T18:45:54.632Z,14.26
2023-05-10T18:48:31.447Z,13.97
2023-05-10T18:51:00.589Z,14.31
2023-05-10T18:53:58.326Z,14.09
2023-05-10T18:56:26.439Z,14.35
2023-05-10T18:59:09.442Z,14.28
2023-05-10T19:01:36.086Z,14.26
2023-05-10T19:04:02.997Z,14.28
2023-05-10T19:06:56.278Z,14.20
2023-05-10T19:09:25.975Z,14.21
2023-05-10T19:12:01.539Z,14.36
2023-05-10T19:14:31.597Z,14.29
2023-05-10T19:17:01.224Z,14.27
2023-05-10T19:19:31.073Z,14.36
2023-05-10T19:22:03.865Z,14.37
2023-05-10T19:24:31.630Z,14.27
2023-05-10T19:27:00.763Z,14.26
2023-05-10T19:29:30.712Z,14.25
2023-05-10T19:32:02.952Z,13.98
2023-05-10T19:34:29.581Z,14.27
2023-05-10T19:37:00.673Z,14.25
2023-05-10T19:39:28.707Z,13.90
2023-05-10T19:42:00.075Z,14.21
2023-05-10T19:44:27.043Z,14.24
2023-05-10T19:47:00.011Z,14.18
2023-05-10T19:49:32.973Z,13.95
2023-05-10T19:52:13.337Z,14.25
2023-05-10T19:54:39.958Z,14.32
2023-05-10T19:57:08.945Z,14.32
2023-05-10T19:59:36.760Z,14.28
2023-05-10T20:02:05.151Z,14.33
2023-05-10T20:04:38.425Z,14.28
2023-05-10T20:07:06.526Z,14.25
2023-05-10T20:09:33.231Z,14.31
2023-05-10T20:12:00.423Z,14.35
2023-05-10T20:14:32.871Z,14.31
2023-05-10T20:17:03.495Z,14.26
2023-05-10T20:19:30.128Z,14.21
2023-05-10T20:22:00.917Z,14.25
2023-05-10T20:24:27.610Z,14.35
2023-05-10T20:26:54.399Z,14.34
2023-05-10T20:29:20.969Z,14.33
2023-05-10T20:31:47.779Z,14.32
2023-05-10T20:34:14.486Z,14.33
2023-05-10T20:36:41.351Z,14.31
2023-05-10T20:39:12.291Z,14.29
2023-05-10T20:42:03.047Z,14.08
2023-05-10T20:44:30.594Z,14.23
2023-05-10T20:46:57.809Z,13.90
2023-05-10T20:49:38.228Z,14.25
2023-05-10T20:52:09.355Z,14.21
2023-05-10T20:54:36.156Z,14.18
2023-05-10T20:57:03.598Z,14.02
2023-05-10T20:59:34.968Z,14.10
2023-05-10T21:02:02.260Z,14.25
2023-05-10T21:04:29.070Z,14.27
2023-05-10T21:06:57.037Z,14.17
2023-05-10T21:09:26.857Z,14.09
2023-05-10T21:11:54.357Z,14.13
2023-05-10T21:14:23.364Z,14.17
2023-05-10T21:16:55.634Z,14.16
2023-05-10T21:19:22.907Z,14.19
2023-05-10T21:21:52.101Z,14.04
2023-05-10T21:24:18.860Z,14.06
2023-05-10T21:26:45.689Z,14.00
2023-05-10T21:31:52.723Z,14.11
2023-05-10T21:34:23.798Z,14.02
2023-05-10T21:36:51.020Z,14.10
2023-05-10T21:39:19.266Z,13.71
2023-05-10T21:41:49.228Z,13.81
2023-05-10T21:44:17.223Z,14.06
2023-05-10T21:46:46.412Z,14.01
2023-05-10T21:49:13.498Z,14.01
2023-05-10T21:51:40.069Z,14.03
2023-05-10T21:54:06.971Z,14.02
2023-05-10T21:56:33.907Z,13.96
2023-05-10T21:59:00.518Z,13.96
2023-05-10T22:01:27.698Z,13.99
2023-05-10T22:03:55.069Z,13.94
2023-05-10T22:06:21.668Z,14.00
2023-05-10T22:08:48.276Z,13.90
2023-05-10T22:11:14.915Z,13.98
2023-05-10T22:13:41.511Z,13.86
2023-05-10T22:16:08.201Z,13.96
2023-05-10T22:18:37.854Z,13.92
2023-05-10T22:21:04.533Z,13.87
2023-05-10T22:23:31.389Z,13.81
2023-05-10T22:26:02.877Z,13.80
2023-05-10T22:28:29.785Z,13.85
2023-05-10T22:30:56.526Z,13.90
2023-05-10T22:33:23.167Z,13.81
2023-05-10T22:35:49.678Z,13.82
2023-05-10T22:38:16.287Z,13.82
2023-05-10T22:40:45.026Z,13.86
2023-05-10T22:43:11.902Z,13.92
2023-05-10T22:45:38.467Z,13.88
2023-05-10T22:48:05.311Z,13.85
2023-05-10T22:50:33.053Z,13.55
2023-05-10T22:52:59.567Z,13.78
2023-05-10T22:55:26.450Z,13.81
2023-05-10T22:57:53.445Z,13.78
2023-05-10T23:00:20.337Z,13.82
2023-05-10T23:02:47.260Z,13.79
2023-05-10T23:05:17.143Z,13.88
2023-05-10T23:07:53.601Z,13.81
2023-05-10T23:10:20.470Z,13.81
2023-05-10T23:12:50.774Z,13.83
2023-05-10T23:15:20.492Z,13.76
2023-05-10T23:17:47.185Z,13.79
2023-05-10T23:20:16.721Z,13.45
2023-05-10T23:22:43.671Z,13.88
2023-05-10T23:25:16.783Z,13.87
2023-05-10T23:27:44.621Z,13.90
2023-05-10T23:30:11.424Z,13.75
2023-05-10T23:32:38.127Z,13.80
2023-05-10T23:35:04.894Z,13.81
2023-05-10T23:37:31.684Z,13.85
2023-05-10T23:40:01.653Z,13.79
2023-05-10T23:42:32.513Z,13.79
2023-05-10T23:44:59.128Z,13.84
2023-05-10T23:47:25.710Z,13.91
2023-05-10T23:49:52.668Z,13.92
2023-05-10T23:52:22.866Z,13.95
2023-05-10T23:54:49.501Z,13.84
2023-05-10T23:57:16.176Z,13.78
2023-05-10T23:59:42.762Z,13.84
